Pagina principală
METAR-TAF:

METAR-TAF

Aeroporturi :

Sarh, Ciad

Latitudine: 09-09N, longitudine: 018-23E, elevație: 365 m

Observații meteo curente

Raportul a fost făcut în urmă cu 13 ore și 51 de minute, la 17:00 UTC
Vânt calm
Temperatură 37°C
Umiditate 37%
Presiune 1008 hPa
Vizibilitate de 10 km sau mai mult
Nori puțini la o înălțime de 4000 picior
Nori puțini la o înălțime de 5000 picior, Cumulonimbus.

METAR: FTTA 271700Z 00000KT 9999 FEW040 FEW050CB 37/20 Q1008

Ora: 07:51 (06:51 UTC)


TAF: lipsă

Observații și prognoze meteo pentru peste 4.000 de aeroporturi (rapoarte METAR și TAF).

Stațiile disponibile sunt reprezentate pe hartă prin puncte galbene și roșii.

Țineți indicatorul mouse-ului pe punctul dorit pentru a vedea denumirea stației.

Apoi, faceți clic pentru a vedea observațiile și prognozele meteorologice.

Pentru a schimba harta: Pentru mărire, faceți clic pe butoanele verzi cu cruce neagră; pentru micșorare, pe butonul verde cu o liniuță; pentru hărți învecinate, pe săgețile verzi.


METAR-TAF: